createdAt,value
2018-12-15T00:01:27.545Z,100.00
2018-12-15T00:03:55.182Z,100.00
2018-12-15T00:06:22.798Z,100.00
2018-12-15T00:08:50.276Z,100.00
2018-12-15T00:11:17.756Z,100.00
2018-12-15T00:13:45.307Z,100.00
2018-12-15T00:16:12.807Z,100.00
2018-12-15T00:18:40.347Z,100.00
2018-12-15T00:21:07.837Z,100.00
2018-12-15T00:23:35.325Z,100.00
2018-12-15T00:26:02.829Z,100.00
2018-12-15T00:28:30.326Z,100.00
2018-12-15T00:30:58.107Z,100.00
2018-12-15T00:33:25.870Z,100.00
2018-12-15T00:35:53.366Z,100.00
2018-12-15T00:38:20.852Z,100.00
2018-12-15T00:40:48.361Z,100.00
2018-12-15T00:43:15.848Z,100.00
2018-12-15T00:45:43.521Z,100.00
2018-12-15T00:48:11.037Z,100.00
2018-12-15T00:50:38.528Z,100.00
2018-12-15T00:53:06.171Z,100.00
2018-12-15T00:55:33.677Z,100.00
2018-12-15T00:58:01.216Z,100.00
2018-12-15T01:00:28.838Z,100.00
2018-12-15T01:02:56.322Z,100.00
2018-12-15T01:05:23.805Z,100.00
2018-12-15T01:07:51.306Z,100.00
2018-12-15T01:10:18.793Z,100.00
2018-12-15T01:12:46.446Z,100.00
2018-12-15T01:15:13.937Z,100.00
2018-12-15T01:17:41.437Z,100.00
2018-12-15T01:20:09.017Z,100.00
2018-12-15T01:22:36.533Z,100.00
2018-12-15T01:25:04.024Z,100.00
2018-12-15T01:27:31.580Z,100.00
2018-12-15T01:29:59.096Z,100.00
2018-12-15T01:32:26.637Z,100.00
2018-12-15T01:34:54.165Z,100.00
2018-12-15T01:37:22.586Z,100.00
2018-12-15T01:39:50.139Z,100.00
2018-12-15T01:42:17.638Z,100.00
2018-12-15T01:44:45.150Z,100.00
2018-12-15T01:47:12.699Z,100.00
2018-12-15T01:49:40.182Z,100.00
2018-12-15T01:52:07.802Z,100.00
2018-12-15T01:54:35.326Z,100.00
2018-12-15T01:57:02.814Z,100.00
2018-12-15T01:59:30.472Z,100.00
2018-12-15T02:01:58.001Z,100.00
2018-12-15T02:04:25.479Z,100.00
2018-12-15T02:06:52.991Z,100.00
2018-12-15T02:09:20.511Z,100.00
2018-12-15T02:11:47.999Z,100.00
2018-12-15T02:14:15.564Z,100.00
2018-12-15T02:16:43.172Z,100.00
2018-12-15T02:19:10.836Z,100.00
2018-12-15T02:21:38.365Z,100.00
2018-12-15T02:24:05.890Z,100.00
2018-12-15T02:26:33.519Z,100.00
2018-12-15T02:29:01.047Z,100.00
2018-12-15T02:31:28.547Z,100.00
2018-12-15T02:33:56.067Z,100.00
2018-12-15T02:36:23.553Z,100.00
2018-12-15T02:38:51.131Z,100.00
2018-12-15T02:41:18.634Z,100.00
2018-12-15T02:43:46.124Z,100.00
2018-12-15T02:46:13.665Z,100.00
2018-12-15T02:48:41.217Z,100.00
2018-12-15T02:51:08.708Z,100.00
2018-12-15T02:53:36.205Z,100.00
2018-12-15T02:56:03.737Z,100.00
2018-12-15T02:58:31.235Z,100.00
2018-12-15T03:00:58.760Z,100.00
2018-12-15T03:03:26.269Z,100.00
2018-12-15T03:05:53.765Z,100.00
2018-12-15T03:08:21.416Z,100.00
2018-12-15T03:10:48.906Z,100.00
2018-12-15T03:13:16.431Z,100.00
2018-12-15T03:15:43.947Z,100.00
2018-12-15T03:18:11.437Z,100.00
2018-12-15T03:20:39.076Z,100.00
2018-12-15T03:23:06.586Z,100.00
2018-12-15T03:25:34.098Z,100.00
2018-12-15T03:28:01.638Z,100.00
2018-12-15T03:30:29.144Z,100.00
2018-12-15T03:32:56.674Z,100.00
2018-12-15T03:35:24.219Z,100.00
2018-12-15T03:37:51.705Z,100.00
2018-12-15T03:40:19.358Z,100.00
2018-12-15T03:42:46.847Z,100.00
2018-12-15T03:45:14.384Z,100.00
2018-12-15T03:47:41.940Z,100.00
2018-12-15T03:50:09.436Z,100.00
2018-12-15T03:52:36.939Z,100.00
2018-12-15T03:55:04.448Z,100.00
2018-12-15T03:57:31.963Z,100.00
2018-12-15T03:59:59.499Z,100.00
2018-12-15T04:02:27.015Z,100.00
2018-12-15T04:04:54.606Z,100.00
2018-12-15T04:07:22.263Z,100.00
2018-12-15T04:09:49.765Z,100.00
2018-12-15T04:12:17.253Z,100.00
2018-12-15T04:14:44.769Z,100.00
2018-12-15T04:17:12.303Z,100.00
2018-12-15T04:19:39.853Z,100.00
2018-12-15T04:22:19.615Z,100.00
2018-12-15T04:24:47.136Z,100.00
2018-12-15T04:27:14.632Z,100.00
2018-12-15T04:29:42.253Z,100.00
2018-12-15T04:32:09.754Z,100.00
2018-12-15T04:34:37.247Z,100.00
2018-12-15T04:37:04.755Z,100.00
2018-12-15T04:39:32.259Z,100.00
2018-12-15T04:41:59.822Z,100.00
2018-12-15T04:44:27.320Z,100.00
2018-12-15T04:46:54.873Z,100.00
2018-12-15T04:49:22.365Z,100.00
2018-12-15T04:51:49.950Z,100.00
2018-12-15T04:54:17.477Z,100.00
2018-12-15T04:56:44.973Z,100.00
2018-12-15T04:59:12.522Z,100.00
2018-12-15T05:01:40.048Z,100.00
2018-12-15T05:04:07.591Z,100.00
2018-12-15T05:06:35.089Z,100.00
2018-12-15T05:09:02.581Z,100.00
2018-12-15T05:11:30.096Z,100.00
2018-12-15T05:13:57.591Z,100.00
2018-12-15T05:16:25.110Z,100.00
2018-12-15T05:18:52.678Z,100.00
2018-12-15T05:21:20.204Z,100.00
2018-12-15T05:23:47.701Z,100.00
2018-12-15T05:26:15.241Z,100.00
2018-12-15T05:28:42.743Z,100.00
2018-12-15T05:31:10.237Z,100.00
2018-12-15T05:33:37.741Z,100.00
2018-12-15T05:36:05.353Z,100.00
2018-12-15T05:38:32.847Z,100.00
2018-12-15T05:41:00.350Z,100.00
2018-12-15T05:43:27.898Z,100.00
2018-12-15T05:45:55.384Z,100.00
2018-12-15T05:48:25.275Z,100.00
2018-12-15T05:50:52.410Z,100.00
2018-12-15T05:53:19.919Z,100.00
2018-12-15T05:55:47.459Z,100.00
2018-12-15T05:58:14.976Z,100.00
2018-12-15T06:00:42.716Z,100.00
2018-12-15T06:03:10.209Z,100.00
2018-12-15T06:05:37.923Z,100.00
2018-12-15T06:08:05.425Z,100.00
2018-12-15T06:10:32.960Z,100.00
2018-12-15T06:13:00.493Z,100.00
2018-12-15T06:15:28.014Z,100.00
2018-12-15T06:17:55.523Z,100.00
2018-12-15T06:20:23.056Z,100.00
2018-12-15T06:22:50.580Z,100.00
2018-12-15T06:25:18.103Z,100.00
2018-12-15T06:27:45.633Z,100.00
2018-12-15T06:30:13.173Z,100.00
2018-12-15T06:32:40.660Z,100.00
2018-12-15T06:35:08.172Z,100.00
2018-12-15T06:37:35.678Z,100.00
2018-12-15T06:40:04.057Z,100.00
2018-12-15T06:42:31.563Z,100.00
2018-12-15T06:44:59.065Z,100.00
2018-12-15T06:47:26.577Z,100.00
2018-12-15T06:49:54.068Z,100.00
2018-12-15T06:52:21.619Z,100.00
2018-12-15T06:54:49.343Z,100.00
2018-12-15T06:57:16.849Z,100.00
2018-12-15T06:59:44.438Z,100.00
2018-12-15T07:02:11.971Z,100.00
2018-12-15T07:04:39.467Z,100.00
2018-12-15T07:07:07.033Z,100.00
2018-12-15T07:09:34.533Z,100.00
2018-12-15T07:12:02.026Z,100.00
2018-12-15T07:14:29.609Z,100.00
2018-12-15T07:16:57.177Z,100.00
2018-12-15T07:19:24.697Z,100.00
2018-12-15T07:21:52.223Z,100.00
2018-12-15T07:24:19.865Z,100.00
2018-12-15T07:26:47.385Z,100.00
2018-12-15T07:29:14.897Z,100.00
2018-12-15T07:31:42.385Z,100.00
2018-12-15T07:34:09.917Z,100.00
2018-12-15T07:36:37.400Z,100.00
2018-12-15T07:39:05.203Z,100.00
2018-12-15T07:41:32.720Z,100.00
2018-12-15T07:44:00.248Z,100.00
2018-12-15T07:46:28.053Z,100.00
2018-12-15T07:48:55.541Z,100.00
2018-12-15T07:51:23.084Z,100.00
2018-12-15T07:53:50.614Z,100.00
2018-12-15T07:56:18.156Z,100.00
2018-12-15T07:58:45.677Z,100.00
2018-12-15T08:01:13.173Z,100.00
2018-12-15T08:03:40.717Z,100.00
2018-12-15T08:06:08.233Z,100.00
2018-12-15T08:08:35.766Z,100.00
2018-12-15T08:14:11.378Z,100.00
2018-12-15T08:16:38.938Z,100.00
2018-12-15T08:19:06.453Z,100.00
2018-12-15T08:21:34.006Z,100.00
2018-12-15T08:24:01.594Z,100.00
2018-12-15T08:26:29.094Z,100.00
2018-12-15T08:28:56.598Z,100.00
2018-12-15T08:31:24.141Z,100.00
2018-12-15T08:33:51.670Z,100.00
2018-12-15T08:36:19.169Z,100.00
2018-12-15T08:38:46.794Z,100.00
2018-12-15T08:41:14.320Z,100.00
2018-12-15T08:43:41.819Z,100.00
2018-12-15T08:46:11.308Z,100.00
2018-12-15T08:48:38.812Z,100.00
2018-12-15T08:51:06.445Z,100.00
2018-12-15T08:53:33.973Z,100.00
2018-12-15T08:56:01.476Z,100.00
2018-12-15T08:58:29.103Z,100.00
2018-12-15T09:00:56.674Z,100.00
2018-12-15T09:03:24.174Z,100.00
2018-12-15T09:05:51.680Z,100.00
2018-12-15T09:08:19.174Z,100.00
2018-12-15T09:10:46.751Z,100.00
2018-12-15T09:13:14.250Z,100.00
2018-12-15T09:15:41.801Z,100.00
2018-12-15T09:18:09.856Z,100.00
2018-12-15T09:20:37.457Z,100.00
2018-12-15T09:23:05.074Z,100.00
2018-12-15T09:25:32.624Z,100.00
2018-12-15T09:28:00.162Z,100.00
2018-12-15T09:30:27.777Z,100.00
2018-12-15T09:32:55.281Z,100.00
2018-12-15T09:35:22.778Z,100.00
2018-12-15T09:37:50.318Z,100.00
2018-12-15T09:40:17.840Z,100.00
2018-12-15T09:42:45.340Z,100.00
2018-12-15T09:45:12.870Z,100.00
2018-12-15T09:47:40.757Z,100.00
2018-12-15T09:50:08.248Z,100.00
2018-12-15T09:52:35.774Z,100.00
2018-12-15T09:55:03.280Z,100.00
2018-12-15T09:57:30.772Z,100.00
2018-12-15T09:59:58.284Z,100.00
2018-12-15T10:02:25.940Z,100.00
2018-12-15T10:04:53.433Z,100.00
2018-12-15T10:07:20.962Z,100.00
2018-12-15T10:09:48.497Z,100.00
2018-12-15T10:12:16.034Z,100.00
2018-12-15T10:14:43.540Z,100.00
2018-12-15T10:17:11.058Z,100.00
2018-12-15T10:19:38.549Z,100.00
2018-12-15T10:22:06.057Z,100.00
2018-12-15T10:24:33.571Z,100.00
2018-12-15T10:27:01.085Z,100.00
2018-12-15T10:32:36.090Z,100.00
2018-12-15T10:35:04.029Z,100.00
2018-12-15T10:37:31.574Z,100.00
2018-12-15T10:39:59.072Z,100.00
2018-12-15T10:42:26.557Z,100.00
2018-12-15T10:44:54.128Z,100.00
2018-12-15T10:47:21.753Z,100.00
2018-12-15T10:49:49.263Z,100.00
2018-12-15T10:52:16.753Z,100.00
2018-12-15T10:54:44.265Z,100.00
2018-12-15T10:57:11.762Z,100.00
2018-12-15T10:59:39.269Z,100.00
2018-12-15T11:02:06.811Z,100.00
2018-12-15T11:04:34.467Z,100.00
2018-12-15T11:07:01.984Z,100.00
2018-12-15T11:09:29.501Z,100.00
2018-12-15T11:11:57.019Z,100.00
2018-12-15T11:14:24.534Z,100.00
2018-12-15T11:16:52.077Z,100.00
2018-12-15T11:19:19.584Z,100.00
2018-12-15T11:21:47.094Z,100.00
2018-12-15T11:24:14.592Z,100.00
2018-12-15T11:26:42.141Z,100.00
2018-12-15T11:29:09.640Z,100.00
2018-12-15T11:31:37.138Z,99.40
2018-12-15T11:34:04.668Z,99.98
2018-12-15T11:36:32.198Z,99.60
2018-12-15T11:38:59.776Z,100.00
2018-12-15T11:41:27.301Z,99.24
2018-12-15T11:43:54.834Z,98.34
2018-12-15T11:46:22.332Z,98.33
2018-12-15T11:48:49.866Z,98.05
2018-12-15T11:51:17.350Z,98.52
2018-12-15T11:53:44.825Z,99.23
2018-12-15T11:56:12.325Z,99.71
2018-12-15T11:58:39.850Z,99.44
2018-12-15T12:01:07.546Z,99.91
2018-12-15T12:03:35.025Z,99.15
2018-12-15T12:06:03.596Z,98.30
2018-12-15T12:08:31.080Z,99.29
2018-12-15T12:10:58.562Z,98.20
2018-12-15T12:13:26.190Z,96.69
2018-12-15T12:15:53.726Z,95.89
2018-12-15T12:18:22.241Z,96.24
2018-12-15T12:20:49.866Z,97.02
2018-12-15T12:23:17.364Z,96.41
2018-12-15T12:25:44.846Z,94.75
2018-12-15T12:28:12.385Z,92.91
2018-12-15T12:30:39.864Z,94.15
2018-12-15T12:33:07.372Z,93.75
2018-12-15T12:35:34.914Z,94.25
2018-12-15T12:38:02.478Z,91.31
2018-12-15T12:40:29.974Z,92.20
2018-12-15T12:42:57.466Z,93.04
2018-12-15T12:45:25.013Z,91.48
2018-12-15T12:47:52.540Z,90.87
2018-12-15T12:50:20.020Z,91.45
2018-12-15T12:52:47.539Z,90.97
2018-12-15T12:55:15.033Z,89.90
2018-12-15T12:57:42.565Z,88.40
2018-12-15T13:00:10.250Z,89.67
2018-12-15T13:02:37.769Z,88.74
2018-12-15T13:05:05.834Z,87.71
2018-12-15T13:07:33.447Z,87.92
2018-12-15T13:10:01.004Z,87.50
2018-12-15T13:12:28.485Z,87.59
2018-12-15T13:14:55.988Z,86.93
2018-12-15T13:17:23.614Z,87.51
2018-12-15T13:19:51.099Z,88.15
2018-12-15T13:22:18.627Z,87.93
2018-12-15T13:24:46.239Z,87.89
2018-12-15T13:27:13.724Z,87.00
2018-12-15T13:29:41.201Z,87.77
2018-12-15T13:32:08.715Z,85.66
2018-12-15T13:34:36.255Z,86.71
2018-12-15T13:37:03.743Z,86.74
2018-12-15T13:39:31.242Z,86.88
2018-12-15T13:41:58.868Z,86.64
2018-12-15T13:44:26.357Z,87.63
2018-12-15T13:46:53.884Z,88.15
2018-12-15T13:49:21.430Z,87.91
2018-12-15T13:51:48.928Z,87.04
2018-12-15T13:54:16.687Z,86.19
2018-12-15T13:56:44.178Z,86.59
2018-12-15T13:59:11.658Z,86.62
2018-12-15T14:01:39.159Z,86.97
2018-12-15T14:04:06.681Z,88.03
2018-12-15T14:06:34.258Z,87.70
2018-12-15T14:09:01.735Z,86.33
2018-12-15T14:11:29.220Z,86.35
2018-12-15T14:13:56.833Z,87.18
2018-12-15T14:16:24.363Z,87.73
2018-12-15T14:18:51.856Z,87.16
2018-12-15T14:21:19.403Z,86.06
2018-12-15T14:23:46.916Z,86.29
2018-12-15T14:26:14.436Z,86.78
2018-12-15T14:28:41.982Z,85.60
2018-12-15T14:31:09.470Z,86.07
2018-12-15T14:33:37.016Z,86.33
2018-12-15T14:36:04.510Z,86.14
2018-12-15T14:38:32.048Z,86.32
2018-12-15T14:40:59.650Z,85.68
2018-12-15T14:43:27.160Z,85.71
2018-12-15T14:45:54.654Z,85.62
2018-12-15T14:48:22.158Z,85.49
2018-12-15T14:50:49.647Z,85.77
2018-12-15T14:53:17.215Z,85.44
2018-12-15T14:55:44.746Z,86.31
2018-12-15T14:58:12.244Z,87.10
2018-12-15T15:00:39.757Z,86.78
2018-12-15T15:03:07.249Z,86.73
2018-12-15T15:05:34.863Z,86.84
2018-12-15T15:08:02.350Z,87.43
2018-12-15T15:10:29.826Z,87.79
2018-12-15T15:12:57.331Z,88.38
2018-12-15T15:15:24.808Z,88.33
2018-12-15T15:17:52.304Z,87.77
2018-12-15T15:20:21.298Z,87.86
2018-12-15T15:22:48.948Z,88.11
2018-12-15T15:25:16.438Z,89.16
2018-12-15T15:27:43.960Z,87.94
2018-12-15T15:30:11.649Z,88.22
2018-12-15T15:32:39.192Z,88.27
2018-12-15T15:35:06.816Z,88.47
2018-12-15T15:37:34.329Z,87.58
2018-12-15T15:40:01.894Z,87.43
2018-12-15T15:42:29.434Z,87.85
2018-12-15T15:44:57.050Z,88.43
2018-12-15T15:47:24.768Z,89.29
2018-12-15T15:49:52.286Z,88.53
2018-12-15T15:52:20.131Z,88.87
2018-12-15T15:54:47.634Z,89.07
2018-12-15T15:57:15.127Z,87.86
2018-12-15T15:59:43.807Z,88.02
2018-12-15T16:02:11.324Z,88.22
2018-12-15T16:04:38.805Z,89.02
2018-12-15T16:07:06.669Z,89.25
2018-12-15T16:09:34.148Z,89.32
2018-12-15T16:12:01.636Z,89.15
2018-12-15T16:14:29.211Z,89.79
2018-12-15T16:16:56.732Z,89.59
2018-12-15T16:19:24.210Z,89.60
2018-12-15T16:21:51.699Z,90.33
2018-12-15T16:24:19.200Z,90.45
2018-12-15T16:26:46.687Z,91.08
2018-12-15T16:29:14.225Z,91.34
2018-12-15T16:31:41.747Z,90.72
2018-12-15T16:34:09.384Z,90.98
2018-12-15T16:36:36.919Z,91.69
2018-12-15T16:39:06.266Z,91.44
2018-12-15T16:41:33.857Z,92.09
2018-12-15T16:44:01.408Z,91.76
2018-12-15T16:46:28.984Z,92.41
2018-12-15T16:48:56.527Z,92.61
2018-12-15T16:51:24.832Z,93.06
2018-12-15T16:53:52.433Z,92.83
2018-12-15T16:56:19.924Z,92.58
2018-12-15T16:58:47.404Z,92.57
2018-12-15T17:01:15.009Z,93.01
2018-12-15T17:03:42.507Z,93.59
2018-12-15T17:06:10.022Z,93.53
2018-12-15T17:08:37.586Z,93.74
2018-12-15T17:11:05.066Z,94.29
2018-12-15T17:13:32.602Z,94.22
2018-12-15T17:16:00.100Z,94.18
2018-12-15T17:18:27.721Z,94.67
2018-12-15T17:20:56.860Z,94.66
2018-12-15T17:23:24.635Z,95.04
2018-12-15T17:25:52.140Z,94.73
2018-12-15T17:28:19.641Z,95.11
2018-12-15T17:30:47.117Z,95.17
2018-12-15T17:33:14.960Z,94.80
2018-12-15T17:35:42.435Z,95.29
2018-12-15T17:38:09.942Z,95.29
2018-12-15T17:40:37.563Z,95.55
2018-12-15T17:43:05.050Z,95.33
2018-12-15T17:45:32.541Z,95.86
2018-12-15T17:48:00.054Z,95.71
2018-12-15T17:50:27.548Z,95.97
2018-12-15T17:52:55.086Z,95.73
2018-12-15T17:55:22.575Z,96.26
2018-12-15T17:57:50.089Z,96.35
2018-12-15T18:00:17.576Z,96.63
2018-12-15T18:02:45.090Z,96.29
2018-12-15T18:05:12.580Z,96.39
2018-12-15T18:07:40.085Z,96.34
2018-12-15T18:10:08.230Z,96.05
2018-12-15T18:12:35.716Z,96.50
2018-12-15T18:15:03.275Z,96.43
2018-12-15T18:17:30.807Z,96.43
2018-12-15T18:19:58.297Z,96.55
2018-12-15T18:22:25.826Z,96.57
2018-12-15T18:24:53.392Z,96.39
2018-12-15T18:27:20.971Z,96.09
2018-12-15T18:29:48.460Z,96.04
2018-12-15T18:32:15.945Z,96.18
2018-12-15T18:34:43.564Z,96.13
2018-12-15T18:37:11.054Z,95.96
2018-12-15T18:39:38.539Z,96.27
2018-12-15T18:42:10.786Z,96.17
2018-12-15T18:44:35.554Z,95.96
2018-12-15T18:47:03.127Z,96.08
2018-12-15T18:49:30.612Z,95.49
2018-12-15T18:51:58.101Z,96.10
2018-12-15T18:54:25.716Z,96.03
2018-12-15T18:56:53.337Z,96.18
2018-12-15T18:59:21.008Z,95.62
2018-12-15T19:01:48.512Z,95.42
2018-12-15T19:04:16.042Z,95.77
2018-12-15T19:06:43.608Z,96.01
2018-12-15T19:09:11.106Z,96.34
2018-12-15T19:11:38.644Z,95.91
2018-12-15T19:14:06.172Z,96.14
2018-12-15T19:16:33.790Z,95.70
2018-12-15T19:19:01.316Z,95.90
2018-12-15T19:21:28.824Z,95.83
2018-12-15T19:23:56.336Z,95.71
2018-12-15T19:26:23.826Z,95.70
2018-12-15T19:28:51.336Z,95.83
2018-12-15T19:31:18.833Z,96.12
2018-12-15T19:33:46.374Z,96.22
2018-12-15T19:36:13.864Z,95.28
2018-12-15T19:38:41.530Z,95.48
2018-12-15T19:41:09.019Z,96.29
2018-12-15T19:43:36.536Z,95.76
2018-12-15T19:46:04.176Z,95.69
2018-12-15T19:48:31.665Z,95.55
2018-12-15T19:50:59.149Z,95.26
2018-12-15T19:53:26.690Z,94.61
2018-12-15T19:55:54.182Z,95.38
2018-12-15T19:58:21.720Z,94.96
2018-12-15T20:00:49.204Z,94.63
2018-12-15T20:03:16.701Z,94.57
2018-12-15T20:05:44.196Z,94.38
2018-12-15T20:08:11.767Z,95.05
2018-12-15T20:10:39.258Z,94.60
2018-12-15T20:13:06.745Z,94.42
2018-12-15T20:15:34.244Z,94.81
2018-12-15T20:18:01.739Z,94.68
2018-12-15T20:20:29.256Z,94.95
2018-12-15T20:22:56.744Z,95.03
2018-12-15T20:25:24.351Z,94.39
2018-12-15T20:27:51.870Z,94.98
2018-12-15T20:30:19.364Z,94.10
2018-12-15T20:32:46.860Z,94.23
2018-12-15T20:35:14.340Z,94.55
2018-12-15T20:37:41.848Z,95.18
2018-12-15T20:40:09.348Z,94.87
2018-12-15T20:42:36.841Z,94.46
2018-12-15T20:45:04.944Z,94.64
2018-12-15T20:47:32.468Z,94.67
2018-12-15T20:49:59.972Z,94.17
2018-12-15T20:52:27.464Z,93.91
2018-12-15T20:54:54.984Z,94.55
2018-12-15T20:57:22.464Z,94.87
2018-12-15T20:59:49.977Z,94.19
2018-12-15T21:02:17.481Z,94.57
2018-12-15T21:04:44.964Z,94.49
2018-12-15T21:07:12.531Z,94.45
2018-12-15T21:09:40.029Z,94.72
2018-12-15T21:12:07.504Z,94.32
2018-12-15T21:14:35.042Z,94.31
2018-12-15T21:17:02.571Z,93.52
2018-12-15T21:19:30.184Z,94.27
2018-12-15T21:21:57.750Z,94.42
2018-12-15T21:24:25.302Z,93.66
2018-12-15T21:26:52.808Z,94.16
2018-12-15T21:29:20.374Z,93.91
2018-12-15T21:31:47.867Z,94.00
2018-12-15T21:34:15.440Z,94.04
2018-12-15T21:36:42.944Z,94.56
2018-12-15T21:39:10.442Z,94.48
2018-12-15T21:41:37.951Z,94.65
2018-12-15T21:44:05.437Z,94.49
2018-12-15T21:46:33.043Z,94.36
2018-12-15T21:49:00.561Z,94.71
2018-12-15T21:51:28.056Z,94.75
2018-12-15T21:53:55.838Z,94.81
2018-12-15T21:56:23.360Z,94.18
2018-12-15T21:58:50.847Z,94.32
2018-12-15T22:01:18.439Z,93.65
2018-12-15T22:03:45.928Z,94.50
2018-12-15T22:06:13.539Z,94.57
2018-12-15T22:08:41.049Z,94.45
2018-12-15T22:11:08.527Z,94.23
2018-12-15T22:13:36.042Z,93.38
2018-12-15T22:16:03.604Z,94.15
2018-12-15T22:18:31.096Z,93.77
2018-12-15T22:20:58.772Z,94.29
2018-12-15T22:23:26.333Z,94.44
2018-12-15T22:25:53.862Z,94.33
2018-12-15T22:28:21.377Z,94.04
2018-12-15T22:30:49.017Z,93.56
2018-12-15T22:33:16.542Z,94.34
2018-12-15T22:35:44.023Z,93.98
2018-12-15T22:38:11.924Z,94.56
2018-12-15T22:40:39.407Z,94.03
2018-12-15T22:43:06.880Z,94.61
2018-12-15T22:45:34.418Z,94.06
2018-12-15T22:48:01.897Z,94.46
2018-12-15T22:50:29.422Z,94.65
2018-12-15T22:52:56.944Z,93.93
2018-12-15T22:55:24.546Z,93.91
2018-12-15T22:57:52.040Z,94.26
2018-12-15T23:00:19.549Z,93.77
2018-12-15T23:02:47.041Z,94.57
2018-12-15T23:05:14.543Z,94.36
2018-12-15T23:07:42.051Z,93.64
2018-12-15T23:10:09.655Z,93.74
2018-12-15T23:12:37.160Z,93.78
2018-12-15T23:15:05.708Z,94.61
2018-12-15T23:17:33.549Z,94.27
2018-12-15T23:20:01.048Z,94.60
2018-12-15T23:22:28.581Z,94.76
2018-12-15T23:24:56.121Z,94.36
2018-12-15T23:27:23.736Z,94.99
2018-12-15T23:29:51.219Z,93.85
2018-12-15T23:32:18.697Z,94.25
2018-12-15T23:34:46.233Z,94.08
2018-12-15T23:37:13.716Z,94.25
2018-12-15T23:39:41.291Z,93.50
2018-12-15T23:42:08.829Z,94.33
2018-12-15T23:44:36.447Z,94.31
2018-12-15T23:47:03.930Z,94.25
2018-12-15T23:49:31.468Z,94.24
2018-12-15T23:51:59.009Z,94.62
2018-12-15T23:54:26.665Z,94.54
2018-12-15T23:56:54.313Z,94.66
2018-12-15T23:59:21.790Z,94.51
